Aviation Digital Data Service (ADDS)

Output produced by METARs form (1339 UTC 22 April 2021)
found at http://www.aviationweather.gov/metar/data/
 
VTCT 221300Z 22003KT CAVOK 29/23 Q1006 NOSIG
VTCT 221200Z 28002KT CAVOK 30/21 Q1005 NOSIG
VTCT 221100Z VRB02KT CAVOK 34/21 Q1005 NOSIG
VTCT 221000Z 10003KT CAVOK 36/19 Q1004 NOSIG
VTCT 220900Z 10005KT CAVOK 36/20 Q1005 NOSIG
VTCT 220800Z 11006KT CAVOK 36/20 Q1006 NOSIG
VTCT 220700Z 11008KT CAVOK 36/21 Q1007 NOSIG
VTCT 220600Z 10007KT 060V120 CAVOK 35/22 Q1009 NOSIG
VTCT 220500Z 10006KT 070V140 9000 NSC 33/24 Q1010 NOSIG
VTCT 220400Z VRB02KT CAVOK 32/23 Q1011 NOSIG
VTCT 220300Z VRB02KT 9000 NSC 30/24 Q1012 NOSIG
VTCT 220200Z VRB02KT 9000 NSC 29/22 Q1012 NOSIG
VTCT 220100Z 00000KT 9000 NSC 26/22 Q1011 NOSIG
VTCT 220000Z 00000KT 8000 NSC 23/23 Q1011 NOSIG
VTCT 212300Z 00000KT 7000 NSC 22/22 Q1010 NOSIG
VTCT 212200Z 00000KT CAVOK 22/22 Q1009 NOSIG
VTCT 212100Z 00000KT CAVOK 23/21 Q1009 NOSIG
VTCT 212000Z 30003KT 260V360 CAVOK 23/22 Q1008 NOSIG
VTCT 211900Z 23004KT CAVOK 24/21 Q1008 NOSIG
VTCT 211800Z 21002KT CAVOK 25/23 Q1009 NOSIG
VTCT 211700Z 22002KT CAVOK 25/23 Q1009 NOSIG
VTCT 211600Z 00000KT CAVOK 26/21 Q1010 NOSIG
VTCT 211500Z 23003KT CAVOK 26/22 Q1009 NOSIG
VTCT 211400Z 26002KT CAVOK 28/22 Q1009 NOSIG
TAF VTCT 221100Z 2212/2318 10005KT CAVOK